Sarles, North Dakota
Current Conditions -  °F | °C
As of 3:35 PM on Wednesday 17 Dec 2014 (Local Time) from K06D Reporting Station
Clear Clear  
Wind Chill:   Ceiling: Unl
Heat Index: 14°   Visibility: 10mi
Dew Point: 10°   Wind: 8mph
Humidity: 86%   Direction: 150°SSE
Pressure: 30.22"   Gusts: NA
Location:  48.95°N, 99°W
Report Text: K06D 172135Z AUTO 15007KT 10SM CLR M10/M12 A3022 RMK AO2
Loading
Personal Weather Stations






























Interactive Weather Map New forecast layout! Learn more

10-Day Weather Forecast

Advertisements
Track Severe Weather on mobile